Time;durP1;ratioP1;P1;durP2;ratioP2;P2;SDS_P1;SDS_P2;PMS_P1;PMS_P2;Temp;Humidity;BMP_temperature;BMP_pressure;BME280_temperature;BME280_humidity;BME280_pressure;Samples;Min_cycle;Max_cycle;Signal;HPM_P1;HPM_P2
2023/08/05 00:00:11;;;;;;;3.67;2.20;;;15.20;99.90;;;;;;5054064;28;20611;-77
2023/08/05 00:02:41;;;;;;;4.23;2.17;;;15.20;99.90;;;;;;5038195;28;20558;-77
2023/08/05 00:05:09;;;;;;;3.67;2.17;;;15.20;99.90;;;;;;5038212;28;20622;-77
2023/08/05 00:07:38;;;;;;;6.47;1.73;;;15.20;99.90;;;;;;5033541;28;20224;-77
2023/08/05 00:10:07;;;;;;;2.80;2.00;;;15.20;99.90;;;;;;5034807;28;20213;-77
2023/08/05 00:12:35;;;;;;;3.90;2.07;;;15.20;99.90;;;;;;5034619;28;20213;-77
2023/08/05 00:15:03;;;;;;;4.73;2.00;;;15.20;99.90;;;;;;5034732;28;20225;-76
2023/08/05 00:17:31;;;;;;;2.53;2.03;;;15.10;99.90;;;;;;5034426;28;20574;-77
2023/08/05 00:20:01;;;;;;;4.60;1.90;;;15.10;99.90;;;;;;5034713;28;20640;-75
2023/08/05 00:22:29;;;;;;;3.97;1.83;;;15.10;99.90;;;;;;5034577;28;20270;-75
2023/08/05 00:24:57;;;;;;;4.30;2.00;;;15.10;99.90;;;;;;5034575;28;20566;-75
2023/08/05 00:27:25;;;;;;;4.37;1.90;;;15.10;99.90;;;;;;5033998;28;20213;-75
2023/08/05 00:29:54;;;;;;;2.40;1.90;;;15.10;99.90;;;;;;5034502;28;20609;-76
2023/08/05 00:32:22;;;;;;;3.80;1.83;;;15.10;99.90;;;;;;5034007;28;20212;-76
2023/08/05 00:34:50;;;;;;;3.00;1.67;;;15.10;99.90;;;;;;5034000;28;20711;-78
2023/08/05 00:37:19;;;;;;;2.93;1.73;;;15.10;99.90;;;;;;5034278;28;20209;-76
2023/08/05 00:39:48;;;;;;;3.00;1.83;;;15.10;99.90;;;;;;5034410;28;20223;-77
2023/08/05 00:42:18;;;;;;;2.93;1.83;;;15.10;99.90;;;;;;5034345;28;20615;-75
2023/08/05 00:44:46;;;;;;;2.03;1.80;;;15.10;99.90;;;;;;5034339;28;20216;-75
2023/08/05 00:47:18;;;;;;;2.90;1.90;;;15.20;99.90;;;;;;5034191;28;20266;-76
2023/08/05 00:49:48;;;;;;;1.90;1.53;;;15.10;99.90;;;;;;5034078;28;20209;-75
2023/08/05 00:52:19;;;;;;;2.93;1.90;;;15.10;99.90;;;;;;5033934;28;20438;-76
2023/08/05 00:54:48;;;;;;;3.90;2.00;;;15.10;99.90;;;;;;5034061;28;20274;-77
2023/08/05 00:57:18;;;;;;;2.90;1.80;;;15.10;99.90;;;;;;5043037;28;20212;-76
2023/08/05 00:59:47;;;;;;;3.40;2.00;;;15.10;99.90;;;;;;5054336;28;20274;-76
2023/08/05 01:02:15;;;;;;;3.40;1.90;;;15.10;99.90;;;;;;5053782;28;20253;-75
2023/08/05 01:04:43;;;;;;;2.40;1.80;;;15.10;99.90;;;;;;5035705;28;20549;-75
2023/08/05 01:07:12;;;;;;;3.70;1.90;;;15.10;99.90;;;;;;5033710;28;20229;-76
2023/08/05 01:09:42;;;;;;;5.27;2.10;;;15.10;99.90;;;;;;5034376;28;20221;-73
2023/08/05 01:12:10;;;;;;;3.27;1.90;;;15.10;99.90;;;;;;5033379;28;20659;-74
2023/08/05 01:14:38;;;;;;;3.10;1.90;;;15.10;99.90;;;;;;5033535;28;20715;-75
2023/08/05 01:17:08;;;;;;;2.93;1.93;;;15.10;99.90;;;;;;5033276;28;20259;-76
2023/08/05 01:19:37;;;;;;;3.10;2.20;;;15.10;99.90;;;;;;5033584;28;20220;-75
2023/08/05 01:22:14;;;;;;;7.73;2.40;;;15.00;99.90;;;;;;5033598;28;20565;-76
2023/08/05 01:24:52;;;;;;;3.10;2.00;;;15.00;99.90;;;;;;5033468;28;20220;-76
2023/08/05 01:27:23;;;;;;;4.23;2.20;;;15.00;99.90;;;;;;5033683;28;20220;-76
2023/08/05 01:29:51;;;;;;;2.43;1.77;;;15.00;99.90;;;;;;5041942;28;20724;-75
2023/08/05 01:32:21;;;;;;;2.67;2.10;;;15.00;99.90;;;;;;5052827;28;20216;-76
2023/08/05 01:34:50;;;;;;;3.20;2.43;;;15.00;99.90;;;;;;5053312;28;20314;-76
2023/08/05 01:37:18;;;;;;;3.30;2.20;;;14.90;99.90;;;;;;5051925;28;20196;-74
2023/08/05 01:39:49;;;;;;;3.10;2.00;;;14.90;99.90;;;;;;5033346;28;20285;-76
2023/08/05 01:42:17;;;;;;;2.90;2.20;;;15.00;99.90;;;;;;5032981;28;20205;-76
2023/08/05 01:44:46;;;;;;;2.80;2.23;;;14.90;99.90;;;;;;5033031;28;20576;-78
2023/08/05 01:47:14;;;;;;;2.90;2.10;;;14.90;99.90;;;;;;5033169;28;20282;-76
2023/08/05 01:49:43;;;;;;;2.17;2.00;;;14.90;99.90;;;;;;5033011;28;20266;-74
2023/08/05 01:52:11;;;;;;;3.90;2.37;;;14.90;99.90;;;;;;5032843;28;20259;-75
2023/08/05 01:54:39;;;;;;;5.37;2.20;;;14.90;99.90;;;;;;5032969;28;20262;-77
2023/08/05 01:57:08;;;;;;;2.40;2.00;;;14.90;99.90;;;;;;5041661;28;20205;-75
2023/08/05 01:59:36;;;;;;;2.17;1.90;;;14.90;99.90;;;;;;5032985;28;20303;-75
2023/08/05 02:02:06;;;;;;;4.03;1.90;;;14.80;99.90;;;;;;5034026;28;20209;-74
2023/08/05 02:04:34;;;;;;;4.13;2.07;;;14.90;99.90;;;;;;5032960;28;20228;-75
2023/08/05 02:07:03;;;;;;;2.10;1.87;;;14.80;99.90;;;;;;5012656;28;20225;-76
2023/08/05 02:09:31;;;;;;;2.63;1.80;;;14.80;99.90;;;;;;5012790;28;20264;-75
2023/08/05 02:11:59;;;;;;;2.83;1.70;;;14.80;99.90;;;;;;5012288;28;20214;-74
2023/08/05 02:14:27;;;;;;;2.13;1.93;;;14.80;99.90;;;;;;5014122;28;20671;-75
2023/08/05 02:16:55;;;;;;;2.67;2.10;;;14.80;99.90;;;;;;5032709;28;20232;-76
2023/08/05 02:19:25;;;;;;;3.50;2.03;;;14.80;99.90;;;;;;5032536;28;20209;-75
2023/08/05 02:21:53;;;;;;;3.70;1.90;;;14.80;99.90;;;;;;5031588;28;20209;-72
2023/08/05 02:24:21;;;;;;;1.97;1.80;;;14.80;99.90;;;;;;5022585;28;20209;-75
2023/08/05 02:26:49;;;;;;;3.13;1.97;;;14.80;99.90;;;;;;5012142;28;20209;-75
2023/08/05 02:29:18;;;;;;;4.43;2.00;;;14.80;99.90;;;;;;5012216;28;20211;-75
2023/08/05 02:31:46;;;;;;;3.23;2.10;;;14.80;99.90;;;;;;5011941;28;20210;-75
2023/08/05 02:34:14;;;;;;;3.27;2.23;;;14.80;99.90;;;;;;5012489;28;20221;-76
2023/08/05 02:36:44;;;;;;;3.57;2.00;;;14.80;99.90;;;;;;5011889;28;20822;-77
2023/08/05 02:39:13;;;;;;;3.13;2.00;;;14.80;99.90;;;;;;5013076;28;20236;-75
2023/08/05 02:41:41;;;;;;;5.83;2.20;;;14.70;99.90;;;;;;5024452;28;20213;-74
2023/08/05 02:44:09;;;;;;;2.33;2.10;;;14.70;99.90;;;;;;5032139;28;20267;-77
2023/08/05 02:46:37;;;;;;;3.20;2.10;;;14.70;99.90;;;;;;5032256;28;20216;-75
2023/08/05 02:49:08;;;;;;;2.47;2.00;;;14.70;99.90;;;;;;5023608;28;20236;-75
2023/08/05 02:51:36;;;;;;;2.50;1.80;;;14.70;99.90;;;;;;5012717;28;20675;-74
2023/08/05 02:54:06;;;;;;;3.03;2.00;;;14.70;99.90;;;;;;5017764;28;20205;-76
2023/08/05 02:56:34;;;;;;;3.07;1.93;;;14.80;99.90;;;;;;5032499;28;20603;-74
2023/08/05 02:59:02;;;;;;;2.47;1.83;;;14.70;99.90;;;;;;5021774;28;20732;-75
2023/08/05 03:01:30;;;;;;;4.03;2.00;;;14.70;99.90;;;;;;5012572;28;20268;-76
2023/08/05 03:03:59;;;;;;;2.40;1.90;;;14.70;99.90;;;;;;5027691;28;20211;-75
2023/08/05 03:06:27;;;;;;;1.80;1.70;;;14.70;99.90;;;;;;5037190;28;20213;-75
2023/08/05 03:08:55;;;;;;;2.77;2.00;;;14.70;99.90;;;;;;5031665;28;20208;-76
2023/08/05 03:11:24;;;;;;;2.93;1.90;;;14.70;99.90;;;;;;5024056;28;20672;-74
2023/08/05 03:13:53;;;;;;;2.20;2.00;;;14.70;99.90;;;;;;5011904;28;20540;-76
2023/08/05 03:16:21;;;;;;;3.53;2.00;;;14.70;99.90;;;;;;5012073;28;20233;-77
2023/08/05 03:18:49;;;;;;;2.70;1.90;;;14.70;99.90;;;;;;5012045;28;20211;-75
2023/08/05 03:21:17;;;;;;;4.23;1.90;;;14.70;99.90;;;;;;5012034;28;20214;-75
2023/08/05 03:23:45;;;;;;;2.50;1.90;;;14.60;99.90;;;;;;5011816;28;20202;-73
2023/08/05 03:26:13;;;;;;;2.40;1.50;;;14.70;99.90;;;;;;5011870;28;20214;-74
2023/08/05 03:28:44;;;;;;;1.67;1.50;;;14.70;99.90;;;;;;5012234;28;20213;-75
2023/08/05 03:31:12;;;;;;;1.90;1.70;;;14.60;99.90;;;;;;5012036;28;20217;-75
2023/08/05 03:33:42;;;;;;;3.00;1.70;;;14.60;99.90;;;;;;5011487;28;20209;-77
2023/08/05 03:36:11;;;;;;;5.93;1.70;;;14.60;99.90;;;;;;5011638;28;20233;-76
2023/08/05 03:38:39;;;;;;;2.37;1.70;;;14.50;99.90;;;;;;5011982;28;20214;-79
2023/08/05 03:41:07;;;;;;;1.87;1.70;;;14.60;99.90;;;;;;5013577;28;20217;-79
2023/08/05 03:43:35;;;;;;;2.67;1.90;;;14.50;99.90;;;;;;5014802;28;20664;-76
2023/08/05 03:46:04;;;;;;;1.73;1.60;;;14.50;99.90;;;;;;5015199;28;20656;-78
2023/08/05 03:48:32;;;;;;;2.63;1.90;;;14.40;99.90;;;;;;5015393;28;20213;-79
2023/08/05 03:51:01;;;;;;;1.90;1.63;;;14.40;99.90;;;;;;5015323;28;20260;-75
2023/08/05 03:53:29;;;;;;;1.93;1.80;;;14.40;99.90;;;;;;5018889;28;20217;-76
2023/08/05 03:55:57;;;;;;;3.20;1.80;;;14.40;99.90;;;;;;5015648;28;20261;-75
2023/08/05 03:58:26;;;;;;;2.00;1.80;;;14.30;99.90;;;;;;5015669;28;20265;-76
2023/08/05 04:00:54;;;;;;;2.17;1.70;;;14.30;99.90;;;;;;5015092;28;20219;-76
2023/08/05 04:03:23;;;;;;;2.07;1.87;;;14.30;99.90;;;;;;5014612;28;20205;-76
2023/08/05 04:05:51;;;;;;;1.80;1.70;;;14.30;99.90;;;;;;5015241;28;20217;-80
2023/08/05 04:08:20;;;;;;;2.10;1.90;;;14.30;99.90;;;;;;5034683;28;20216;-76
2023/08/05 04:10:48;;;;;;;2.03;1.83;;;14.20;99.90;;;;;;5034501;28;20251;-76
2023/08/05 04:13:17;;;;;;;1.83;1.70;;;14.20;99.90;;;;;;5034620;28;20228;-75
2023/08/05 04:15:47;;;;;;;2.43;2.03;;;14.30;99.90;;;;;;5034407;28;20691;-77
2023/08/05 04:18:15;;;;;;;1.83;1.73;;;14.20;99.90;;;;;;5034878;28;20213;-73
2023/08/05 04:20:46;;;;;;;1.90;1.70;;;14.30;99.90;;;;;;5034140;28;20733;-73
2023/08/05 04:23:18;;;;;;;2.30;1.60;;;14.20;99.90;;;;;;5034398;28;20255;-74
2023/08/05 04:25:47;;;;;;;2.27;1.80;;;14.20;99.90;;;;;;5034876;28;20565;-73
2023/08/05 04:28:15;;;;;;;3.27;1.80;;;14.10;99.90;;;;;;5034552;28;20216;-74
2023/08/05 04:30:43;;;;;;;3.57;1.80;;;14.20;99.90;;;;;;5033968;28;20217;-74
2023/08/05 04:33:11;;;;;;;2.27;1.90;;;14.10;99.90;;;;;;5034190;28;20220;-76
2023/08/05 04:35:39;;;;;;;2.80;1.80;;;14.20;99.90;;;;;;5034149;28;20212;-77
2023/08/05 04:38:09;;;;;;;2.20;1.60;;;14.10;99.90;;;;;;5034249;28;20228;-77
2023/08/05 04:40:37;;;;;;;2.10;1.83;;;14.10;99.90;;;;;;5033967;28;20220;-74
2023/08/05 04:43:05;;;;;;;4.23;2.27;;;14.10;99.90;;;;;;5033999;28;20343;-75
2023/08/05 04:45:33;;;;;;;2.43;2.00;;;14.10;99.90;;;;;;5033836;28;20734;-77
2023/08/05 04:48:03;;;;;;;3.90;2.10;;;14.10;99.90;;;;;;5034042;28;20651;-78
2023/08/05 04:50:31;;;;;;;5.10;2.00;;;14.10;99.90;;;;;;5033847;28;20239;-76
2023/08/05 04:53:00;;;;;;;2.57;2.17;;;14.10;99.90;;;;;;5037078;28;20278;-75
2023/08/05 04:55:31;;;;;;;3.43;2.40;;;14.10;99.90;;;;;;5034268;28;20213;-75
2023/08/05 04:57:59;;;;;;;4.53;2.30;;;14.10;99.90;;;;;;5033806;28;20237;-76
2023/08/05 05:00:27;;;;;;;2.80;2.57;;;14.10;99.90;;;;;;5033836;28;20213;-73
2023/08/05 05:02:55;;;;;;;3.80;2.60;;;14.20;99.90;;;;;;5033360;28;20683;-79
2023/08/05 05:05:25;;;;;;;3.07;2.50;;;14.20;99.90;;;;;;5034062;28;20236;-78
2023/08/05 05:07:54;;;;;;;5.43;2.60;;;14.20;99.90;;;;;;5033743;28;20263;-77
2023/08/05 05:10:22;;;;;;;4.40;2.83;;;14.20;99.90;;;;;;5034034;28;20205;-78
2023/08/05 05:12:51;;;;;;;3.97;3.10;;;14.20;99.90;;;;;;5033275;28;20236;-76
2023/08/05 05:15:21;;;;;;;4.20;3.33;;;14.30;99.90;;;;;;5033847;28;20209;-79
2023/08/05 05:17:50;;;;;;;4.30;3.90;;;14.30;99.90;;;;;;5033827;28;20228;-79
2023/08/05 05:20:19;;;;;;;4.43;3.73;;;14.30;99.90;;;;;;5033412;28;20608;-76
2023/08/05 05:22:47;;;;;;;4.30;3.87;;;14.40;99.90;;;;;;5033382;28;20209;-77
2023/08/05 05:25:15;;;;;;;4.40;4.00;;;14.40;99.90;;;;;;5033800;28;20270;-75
2023/08/05 05:27:45;;;;;;;5.27;4.00;;;14.40;99.90;;;;;;5033597;28;20212;-78
2023/08/05 05:30:14;;;;;;;5.37;4.30;;;14.40;99.90;;;;;;5033275;28;20216;-75
2023/08/05 05:32:42;;;;;;;5.10;4.60;;;14.40;99.90;;;;;;5033080;28;20209;-77
2023/08/05 05:35:11;;;;;;;6.47;4.63;;;14.50;99.90;;;;;;5033389;28;20259;-76
2023/08/05 05:37:39;;;;;;;6.43;5.77;;;14.50;99.90;;;;;;5032683;28;20229;-79
2023/08/05 05:40:08;;;;;;;7.03;6.33;;;14.50;99.90;;;;;;5033442;28;20479;-76
2023/08/05 05:42:36;;;;;;;6.70;6.00;;;14.50;99.90;;;;;;5032876;28;20586;-77
2023/08/05 05:45:05;;;;;;;7.37;6.63;;;14.40;99.90;;;;;;5032728;28;20694;-76
2023/08/05 05:47:35;;;;;;;7.73;6.97;;;14.50;99.90;;;;;;5032652;28;20213;-78
2023/08/05 05:50:04;;;;;;;8.03;7.33;;;14.50;99.90;;;;;;5040671;28;20681;-73
2023/08/05 05:52:32;;;;;;;8.00;7.30;;;14.40;99.90;;;;;;5049291;28;20218;-76
2023/08/05 05:55:02;;;;;;;8.23;7.43;;;14.50;99.90;;;;;;5033323;28;20643;-76
2023/08/05 05:57:30;;;;;;;8.43;7.63;;;14.50;99.90;;;;;;5033272;28;20217;-77
2023/08/05 05:59:58;;;;;;;8.93;8.13;;;14.50;99.90;;;;;;5033059;28;20282;-74
2023/08/05 06:02:29;;;;;;;9.07;8.27;;;14.60;99.90;;;;;;5032615;28;20224;-79
2023/08/05 06:04:58;;;;;;;10.13;9.13;;;14.60;99.90;;;;;;5032665;28;20299;-80
2023/08/05 06:07:26;;;;;;;10.53;8.80;;;14.60;99.90;;;;;;5033517;28;20213;-78
2023/08/05 06:09:55;;;;;;;9.23;8.43;;;14.60;99.90;;;;;;5032724;28;20600;-77
2023/08/05 06:12:27;;;;;;;9.63;8.73;;;14.60;99.90;;;;;;5033534;28;20208;-78
2023/08/05 06:14:56;;;;;;;10.53;9.37;;;14.60;99.90;;;;;;5032739;28;20209;-76
2023/08/05 06:17:24;;;;;;;10.77;9.67;;;14.60;99.90;;;;;;5032399;28;20221;-77
2023/08/05 06:19:52;;;;;;;10.70;9.70;;;14.70;99.90;;;;;;5032428;28;20228;-78
2023/08/05 06:22:21;;;;;;;10.67;9.50;;;14.70;99.90;;;;;;5032479;28;20330;-77
2023/08/05 06:24:50;;;;;;;9.80;8.80;;;14.70;99.90;;;;;;5032148;28;20685;-78
2023/08/05 06:27:19;;;;;;;10.53;9.50;;;14.80;99.90;;;;;;5038238;28;20269;-79
2023/08/05 06:29:47;;;;;;;10.70;9.77;;;14.80;99.90;;;;;;5051641;28;20207;-77
2023/08/05 06:32:15;;;;;;;10.60;9.50;;;14.80;99.90;;;;;;5051886;28;20249;-80
2023/08/05 06:34:43;;;;;;;10.37;9.33;;;14.80;99.90;;;;;;5045369;28;20308;-77
2023/08/05 06:37:11;;;;;;;10.83;9.73;;;14.80;99.90;;;;;;5051911;28;20204;-79
2023/08/05 06:39:41;;;;;;;10.83;9.80;;;14.80;99.90;;;;;;5051885;28;20208;-78
2023/08/05 06:42:09;;;;;;;11.17;10.07;;;14.90;99.90;;;;;;5051447;28;20662;-78
2023/08/05 06:44:37;;;;;;;10.67;9.57;;;14.90;99.90;;;;;;5042196;28;20239;-78
2023/08/05 06:47:06;;;;;;;10.37;9.37;;;14.90;99.90;;;;;;5051799;28;20732;-77
2023/08/05 06:49:35;;;;;;;10.77;9.77;;;15.00;99.90;;;;;;5051608;28;20235;-79
2023/08/05 06:52:04;;;;;;;10.80;9.80;;;15.00;99.90;;;;;;5051719;28;20220;-75
2023/08/05 06:54:32;;;;;;;10.93;9.90;;;15.00;99.90;;;;;;5050778;28;20208;-77
2023/08/05 06:57:02;;;;;;;11.50;9.90;;;15.00;99.90;;;;;;5052347;28;20216;-78
2023/08/05 06:59:30;;;;;;;10.73;9.73;;;15.00;99.90;;;;;;5051636;28;20232;-79
2023/08/05 07:02:00;;;;;;;10.87;9.87;;;15.00;99.90;;;;;;5052100;28;20311;-78
2023/08/05 07:04:29;;;;;;;10.60;9.53;;;15.00;99.90;;;;;;5047723;28;20212;-75
2023/08/05 07:06:57;;;;;;;11.63;10.53;;;15.10;99.90;;;;;;5052191;28;20273;-78
2023/08/05 07:09:25;;;;;;;10.33;9.43;;;15.10;99.90;;;;;;5051541;28;20216;-74
2023/08/05 07:11:54;;;;;;;10.40;9.50;;;15.20;99.90;;;;;;5052394;28;20264;-77
2023/08/05 07:14:25;;;;;;;10.63;9.63;;;15.20;99.90;;;;;;5048864;28;20571;-78
2023/08/05 07:16:53;;;;;;;10.63;9.63;;;15.30;99.90;;;;;;5055341;28;20204;-75
2023/08/05 07:19:21;;;;;;;11.27;10.17;;;15.20;99.90;;;;;;5065801;28;20564;-77
2023/08/05 07:21:51;;;;;;;9.80;8.90;;;15.30;99.90;;;;;;5052148;28;20215;-78
2023/08/05 07:24:19;;;;;;;10.07;9.17;;;15.20;99.90;;;;;;5056009;28;20639;-78
2023/08/05 07:26:47;;;;;;;9.83;8.90;;;15.30;99.90;;;;;;5055732;28;20215;-77
2023/08/05 07:29:15;;;;;;;11.17;10.07;;;15.30;99.90;;;;;;5055755;28;20678;-78
2023/08/05 07:31:45;;;;;;;11.63;10.20;;;15.20;99.90;;;;;;5050918;28;20211;-79
2023/08/05 07:34:15;;;;;;;11.60;10.60;;;15.30;99.90;;;;;;5056029;28;20205;-74
2023/08/05 07:36:44;;;;;;;11.07;10.07;;;15.30;99.90;;;;;;5055693;28;20574;-78
2023/08/05 07:39:12;;;;;;;11.57;10.40;;;15.30;99.90;;;;;;5042842;28;20604;-78
2023/08/05 07:41:41;;;;;;;11.30;10.30;;;15.30;99.90;;;;;;5049962;28;20208;-74
2023/08/05 07:44:12;;;;;;;11.27;10.17;;;15.30;99.90;;;;;;5055480;28;20309;-78
2023/08/05 07:46:41;;;;;;;10.10;9.20;;;15.30;99.90;;;;;;5055809;28;20251;-78
2023/08/05 07:49:12;;;;;;;12.03;9.90;;;15.30;99.90;;;;;;5047814;28;20204;-77
2023/08/05 07:51:40;;;;;;;11.43;10.23;;;15.40;99.90;;;;;;5055513;28;20605;-77
2023/08/05 07:54:08;;;;;;;11.47;10.37;;;15.30;99.90;;;;;;5055129;28;20618;-76
2023/08/05 07:56:38;;;;;;;10.67;9.67;;;15.30;99.90;;;;;;5043056;28;20207;-78
2023/08/05 07:59:06;;;;;;;10.67;9.77;;;15.30;99.90;;;;;;5055422;28;20492;-77
2023/08/05 08:01:35;;;;;;;11.23;10.27;;;15.30;99.90;;;;;;5055233;28;20242;-75
2023/08/05 08:04:07;;;;;;;11.03;10.03;;;15.30;99.90;;;;;;5053868;28;20240;-75
2023/08/05 08:06:37;;;;;;;10.90;9.90;;;15.30;99.90;;;;;;5054395;28;20261;-76
2023/08/05 08:09:05;;;;;;;10.67;9.67;;;15.20;99.90;;;;;;5055507;28;20212;-78
2023/08/05 08:11:33;;;;;;;11.67;10.67;;;15.20;99.90;;;;;;5041435;28;20212;-77
2023/08/05 08:14:02;;;;;;;11.10;10.10;;;15.20;99.90;;;;;;5052790;28;20208;-75
2023/08/05 08:16:30;;;;;;;10.87;9.87;;;15.30;99.90;;;;;;5054601;28;20208;-75
2023/08/05 08:18:59;;;;;;;10.97;9.97;;;15.30;99.90;;;;;;5054741;28;20770;-76
2023/08/05 08:21:27;;;;;;;10.10;9.20;;;15.30;99.90;;;;;;5054954;28;20220;-78
2023/08/05 08:23:57;;;;;;;10.63;9.57;;;15.40;99.90;;;;;;5050440;28;20216;-76
2023/08/05 08:26:25;;;;;;;10.83;9.57;;;15.40;99.90;;;;;;5054782;28;20641;-76
2023/08/05 08:28:53;;;;;;;10.43;9.43;;;15.40;99.90;;;;;;5053650;28;20302;-77
2023/08/05 08:31:21;;;;;;;10.60;9.60;;;15.40;99.90;;;;;;5054206;28;20208;-78
2023/08/05 08:33:50;;;;;;;10.37;9.37;;;15.50;99.90;;;;;;5050188;28;20262;-78
2023/08/05 08:36:19;;;;;;;10.63;9.60;;;15.50;99.90;;;;;;5054020;28;20239;-78
2023/08/05 08:38:47;;;;;;;10.93;9.80;;;15.60;99.90;;;;;;5053981;28;20654;-79
2023/08/05 08:41:16;;;;;;;9.60;8.70;;;15.70;99.90;;;;;;5053500;28;20216;-77
2023/08/05 08:43:47;;;;;;;9.77;8.77;;;15.90;99.90;;;;;;5051673;28;20204;-78
2023/08/05 08:46:16;;;;;;;9.63;8.77;;;15.90;99.90;;;;;;5043359;28;20244;-77
2023/08/05 08:48:45;;;;;;;9.40;8.50;;;16.00;99.90;;;;;;5052932;28;20228;-75
2023/08/05 08:51:13;;;;;;;9.20;8.40;;;16.10;99.90;;;;;;5044627;28;20614;-75
2023/08/05 08:53:44;;;;;;;11.90;8.53;;;16.00;99.90;;;;;;5048610;28;20213;-76
2023/08/05 08:56:12;;;;;;;9.97;8.97;;;16.00;99.90;;;;;;5050256;28;20205;-76
2023/08/05 08:58:42;;;;;;;10.17;9.00;;;16.00;99.90;;;;;;5046374;28;20285;-77
2023/08/05 09:01:14;;;;;;;10.73;9.63;;;16.00;99.90;;;;;;5052744;28;20401;-76
2023/08/05 09:03:44;;;;;;;11.13;9.30;;;16.00;99.90;;;;;;5054210;28;20231;-77
2023/08/05 09:06:12;;;;;;;9.40;8.50;;;16.00;99.90;;;;;;5054478;28;20618;-76
2023/08/05 09:08:40;;;;;;;10.30;9.40;;;16.00;99.90;;;;;;5049129;28;20298;-77
2023/08/05 09:11:09;;;;;;;10.53;9.63;;;16.00;99.90;;;;;;5054319;28;20216;-77
2023/08/05 09:13:39;;;;;;;10.83;9.73;;;16.10;99.90;;;;;;5053737;28;20780;-79
2023/08/05 09:16:13;;;;;;;11.33;9.13;;;16.00;99.90;;;;;;5053781;28;20262;-75
2023/08/05 09:18:45;;;;;;;10.70;9.70;;;16.00;99.90;;;;;;5049463;28;20215;-78
2023/08/05 09:21:22;;;;;;;11.13;8.73;;;16.00;99.90;;;;;;5054021;28;20655;-77
2023/08/05 09:23:50;;;;;;;10.77;9.30;;;16.00;99.90;;;;;;5053188;28;20553;-77
2023/08/05 09:26:28;;;;;;;12.33;9.43;;;16.00;99.90;;;;;;5040777;28;20254;-78
2023/08/05 09:28:56;;;;;;;10.27;8.87;;;16.00;99.90;;;;;;5048466;28;20658;-76
2023/08/05 09:31:26;;;;;;;10.17;9.27;;;15.90;99.90;;;;;;5052840;28;20291;-76
2023/08/05 09:33:55;;;;;;;9.23;8.33;;;15.90;99.90;;;;;;5053287;28;20227;-75
2023/08/05 09:36:24;;;;;;;10.13;8.60;;;15.90;99.90;;;;;;5051861;28;20374;-77
2023/08/05 09:39:05;;;;;;;9.43;8.57;;;16.00;99.90;;;;;;5051498;28;20208;-76
2023/08/05 09:41:35;;;;;;;9.50;8.57;;;16.00;99.90;;;;;;5057293;28;20541;-75
2023/08/05 09:44:05;;;;;;;9.47;8.00;;;16.10;99.90;;;;;;5069183;28;20260;-76
2023/08/05 09:46:40;;;;;;;9.40;8.50;;;16.10;99.90;;;;;;5051333;28;20297;-77
2023/08/05 09:49:09;;;;;;;9.47;7.97;;;16.20;99.90;;;;;;5053263;28;20283;-78
2023/08/05 09:51:38;;;;;;;9.10;8.20;;;16.10;99.90;;;;;;5054187;28;20201;-76
2023/08/05 09:54:11;;;;;;;8.90;8.10;;;16.10;99.90;;;;;;5053123;28;20236;-75
2023/08/05 09:56:40;;;;;;;10.17;8.73;;;16.10;99.90;;;;;;5053944;28;20221;-75
2023/08/05 09:59:09;;;;;;;10.97;9.03;;;16.10;99.90;;;;;;5056123;28;20213;-76
2023/08/05 10:01:40;;;;;;;9.87;8.83;;;16.10;99.90;;;;;;5054426;28;20247;-74
2023/08/05 10:04:10;;;;;;;8.80;7.90;;;16.10;99.90;;;;;;5054872;28;20236;-77
2023/08/05 10:06:40;;;;;;;10.20;9.20;;;16.20;99.90;;;;;;5047767;28;20292;-74
2023/08/05 10:09:09;;;;;;;9.80;8.77;;;16.30;99.90;;;;;;5047241;28;20209;-76
2023/08/05 10:11:37;;;;;;;9.20;8.30;;;16.30;99.90;;;;;;5049391;28;20212;-76
2023/08/05 10:14:07;;;;;;;9.47;8.63;;;16.30;99.90;;;;;;5053030;28;20217;-76
2023/08/05 10:16:39;;;;;;;9.90;8.90;;;16.30;99.90;;;;;;5055054;28;20259;-77
2023/08/05 10:19:07;;;;;;;10.10;9.17;;;16.30;99.90;;;;;;5052087;28;20219;-76
2023/08/05 10:21:36;;;;;;;10.23;9.23;;;16.20;99.90;;;;;;5045342;28;20612;-76
2023/08/05 10:24:05;;;;;;;11.40;10.30;;;16.10;99.90;;;;;;5036018;28;20205;-77
2023/08/05 10:26:44;;;;;;;11.37;9.70;;;16.20;99.90;;;;;;5038122;28;20205;-76
2023/08/05 10:29:29;;;;;;;10.20;9.20;;;16.10;99.90;;;;;;5042693;28;20579;-75
2023/08/05 10:32:10;;;;;;;11.43;9.77;;;16.20;99.90;;;;;;5045980;28;20209;-74
2023/08/05 10:34:38;;;;;;;9.90;9.00;;;16.20;99.90;;;;;;5049035;28;20543;-75
2023/08/05 10:37:07;;;;;;;10.60;9.50;;;16.30;99.90;;;;;;5045357;28;20200;-77
2023/08/05 10:39:44;;;;;;;10.20;8.63;;;16.40;99.90;;;;;;5049048;28;20224;-77
2023/08/05 10:42:36;;;;;;;10.83;9.20;;;16.60;99.90;;;;;;5045460;28;20196;-72
2023/08/05 10:45:10;;;;;;;9.03;8.13;;;16.90;99.90;;;;;;5061568;28;20200;-74
2023/08/05 10:47:48;;;;;;;8.80;7.90;;;17.10;99.90;;;;;;5048177;28;20204;-76
2023/08/05 10:50:16;;;;;;;7.83;7.03;;;17.60;99.90;;;;;;5049818;28;20200;-77
2023/08/05 10:52:45;;;;;;;6.80;6.10;;;18.50;99.90;;;;;;5046024;28;20217;-75
2023/08/05 10:55:13;;;;;;;6.57;5.77;;;19.50;99.90;;;;;;5036904;28;20212;-75
2023/08/05 10:57:48;;;;;;;7.87;5.53;;;20.40;99.90;;;;;;5034291;28;20222;-75
2023/08/05 11:00:22;;;;;;;8.47;5.57;;;20.80;99.90;;;;;;5035526;28;20255;-77
2023/08/05 11:03:30;;;;;;;6.10;5.30;;;21.10;99.90;;;;;;5036267;28;20599;-76
2023/08/05 11:06:04;;;;;;;5.40;4.90;;;21.30;99.90;;;;;;5035010;28;20204;-74
2023/08/05 11:08:34;;;;;;;5.17;4.47;;;22.10;99.90;;;;;;5033147;28;20220;-77
2023/08/05 11:11:03;;;;;;;5.30;4.80;;;21.90;99.90;;;;;;5035114;28;20209;-74
2023/08/05 11:13:36;;;;;;;5.20;4.70;;;21.80;99.90;;;;;;5037871;28;20208;-73
2023/08/05 11:16:09;;;;;;;6.73;5.27;;;20.80;99.90;;;;;;5043743;28;20588;-76
2023/08/05 11:18:39;;;;;;;5.50;5.00;;;20.40;99.90;;;;;;5048057;28;20211;-75
2023/08/05 11:21:10;;;;;;;5.77;5.20;;;19.80;99.90;;;;;;5049849;28;20224;-76
2023/08/05 11:23:39;;;;;;;5.97;5.33;;;19.60;99.90;;;;;;5050326;28;20193;-75
2023/08/05 11:26:08;;;;;;;5.87;5.20;;;19.10;99.90;;;;;;5050704;28;20205;-74
2023/08/05 11:28:41;;;;;;;6.57;5.87;;;19.00;99.90;;;;;;5051818;28;20236;-76
2023/08/05 11:31:10;;;;;;;8.30;6.60;;;18.70;99.90;;;;;;5043927;28;20205;-74
2023/08/05 11:33:48;;;;;;;8.13;6.53;;;18.60;99.90;;;;;;5052671;28;20212;-75
2023/08/05 11:36:16;;;;;;;7.43;6.67;;;18.50;99.90;;;;;;5052625;28;20207;-79
2023/08/05 11:38:45;;;;;;;10.03;7.17;;;18.20;99.90;;;;;;5050047;28;20213;-76
2023/08/05 11:41:13;;;;;;;8.50;7.70;;;18.20;99.90;;;;;;5036915;28;20306;-77
2023/08/05 11:43:41;;;;;;;8.33;7.37;;;18.20;99.90;;;;;;5052205;28;20732;-76
2023/08/05 11:46:25;;;;;;;9.23;7.33;;;18.30;99.90;;;;;;5052399;28;20258;-77
2023/08/05 11:49:08;;;;;;;8.80;7.43;;;18.50;99.90;;;;;;5045210;28;20213;-77
2023/08/05 11:51:50;;;;;;;7.57;6.77;;;18.20;99.90;;;;;;5032412;28;20217;-77
2023/08/05 11:54:28;;;;;;;7.83;6.67;;;18.00;99.90;;;;;;5032331;28;20291;-75
2023/08/05 11:56:56;;;;;;;7.67;6.90;;;18.00;99.90;;;;;;5031936;28;20208;-76
2023/08/05 11:59:37;;;;;;;7.97;6.97;;;18.00;99.90;;;;;;5031498;28;20239;-75
2023/08/05 12:02:06;;;;;;;8.33;7.63;;;17.80;99.90;;;;;;5033063;28;20231;-75
2023/08/05 12:04:42;;;;;;;9.17;8.27;;;17.90;99.90;;;;;;5035528;28;20655;-78
2023/08/05 12:07:12;;;;;;;8.80;7.37;;;18.30;99.90;;;;;;5035179;28;20646;-77
2023/08/05 12:09:40;;;;;;;8.27;7.43;;;18.40;99.90;;;;;;5034900;28;20221;-74
2023/08/05 12:12:14;;;;;;;7.30;6.60;;;18.50;99.90;;;;;;5034137;28;20271;-72
2023/08/05 12:14:42;;;;;;;9.33;7.63;;;18.50;99.90;;;;;;5035602;28;20228;-75
2023/08/05 12:17:10;;;;;;;7.07;6.47;;;18.30;99.90;;;;;;5035474;28;20208;-77
2023/08/05 12:19:42;;;;;;;7.73;6.83;;;18.30;99.90;;;;;;5035611;28;20228;-76
2023/08/05 12:22:10;;;;;;;7.50;6.80;;;18.10;99.90;;;;;;5045237;28;20228;-74
2023/08/05 12:24:38;;;;;;;6.80;5.80;;;18.10;99.90;;;;;;5055376;28;20211;-73
2023/08/05 12:27:07;;;;;;;7.23;5.73;;;18.00;99.90;;;;;;5055359;28;20216;-75
2023/08/05 12:29:35;;;;;;;6.80;6.10;;;17.90;99.90;;;;;;5054527;28;20216;-73
2023/08/05 12:32:03;;;;;;;7.00;6.33;;;17.80;99.90;;;;;;5041504;28;20219;-75
2023/08/05 12:34:32;;;;;;;7.43;5.93;;;17.80;99.90;;;;;;5043558;28;20209;-73
2023/08/05 12:37:01;;;;;;;7.13;6.20;;;17.80;99.90;;;;;;5048991;28;20216;-73
2023/08/05 12:39:29;;;;;;;5.70;5.07;;;17.90;99.90;;;;;;5042882;28;20373;-77
2023/08/05 12:41:57;;;;;;;7.20;6.10;;;17.80;99.90;;;;;;5053833;28;20231;-77
2023/08/05 12:44:26;;;;;;;6.53;5.80;;;17.90;99.90;;;;;;5054168;28;20212;-76
2023/08/05 12:46:54;;;;;;;7.33;6.63;;;17.80;99.90;;;;;;5054444;28;20212;-76
2023/08/05 12:49:22;;;;;;;7.10;6.33;;;17.80;99.90;;;;;;5036920;28;20216;-78
2023/08/05 12:51:50;;;;;;;6.07;5.57;;;17.80;99.90;;;;;;5034196;28;20262;-77
2023/08/05 12:54:20;;;;;;;6.90;6.20;;;17.80;99.90;;;;;;5045020;28;20207;-75